createdAt,value
2022-10-11T00:01:06.413Z,100.00
2022-10-11T00:04:12.473Z,100.00
2022-10-11T00:07:20.087Z,100.00
2022-10-11T00:10:25.870Z,100.00
2022-10-11T00:13:31.953Z,100.00
2022-10-11T00:16:41.133Z,100.00
2022-10-11T00:19:46.744Z,100.00
2022-10-11T00:22:52.052Z,100.00
2022-10-11T00:26:03.698Z,100.00
2022-10-11T00:29:09.818Z,100.00
2022-10-11T00:32:15.316Z,100.00
2022-10-11T00:35:20.974Z,100.00
2022-10-11T00:38:26.676Z,100.00
2022-10-11T00:41:32.483Z,100.00
2022-10-11T00:44:38.282Z,100.00
2022-10-11T00:47:44.297Z,100.00
2022-10-11T00:50:50.540Z,100.00
2022-10-11T00:53:55.922Z,100.00
2022-10-11T00:57:07.560Z,100.00
2022-10-11T01:00:15.109Z,100.00
2022-10-11T01:03:25.193Z,100.00
2022-10-11T01:06:30.788Z,100.00
2022-10-11T01:09:37.194Z,100.00
2022-10-11T01:13:08.822Z,100.00
2022-10-11T01:16:18.009Z,100.00
2022-10-11T01:19:38.973Z,100.00
2022-10-11T01:23:01.952Z,100.00
2022-10-11T01:26:57.012Z,100.00
2022-10-11T01:30:21.914Z,100.00
2022-10-11T01:33:45.810Z,100.00
2022-10-11T01:37:13.076Z,100.00
2022-10-11T01:40:25.504Z,100.00
2022-10-11T01:43:33.926Z,100.00
2022-10-11T01:46:39.434Z,100.00
2022-10-11T01:49:46.499Z,100.00
2022-10-11T01:52:52.486Z,100.00
2022-10-11T01:56:10.396Z,100.00
2022-10-11T01:59:28.993Z,100.00
2022-10-11T02:02:54.698Z,100.00
2022-10-11T02:06:17.653Z,100.00
2022-10-11T02:09:27.478Z,100.00
2022-10-11T02:12:49.752Z,100.00
2022-10-11T02:15:58.734Z,100.00
2022-10-11T02:19:07.109Z,100.00
2022-10-11T02:22:21.493Z,100.00
2022-10-11T02:25:30.920Z,100.00
2022-10-11T02:28:40.356Z,100.00
2022-10-11T02:31:47.713Z,100.00
2022-10-11T02:34:57.281Z,100.00
2022-10-11T02:38:20.145Z,100.00
2022-10-11T02:41:31.705Z,100.00
2022-10-11T02:44:43.956Z,100.00
2022-10-11T02:47:49.489Z,100.00
2022-10-11T02:50:56.934Z,100.00
2022-10-11T02:54:03.115Z,100.00
2022-10-11T02:57:08.970Z,100.00
2022-10-11T03:00:15.438Z,100.00
2022-10-11T03:03:20.930Z,100.00
2022-10-11T03:06:27.023Z,100.00
2022-10-11T03:09:32.369Z,100.00
2022-10-11T03:12:37.676Z,100.00
2022-10-11T03:15:43.184Z,100.00
2022-10-11T03:18:48.678Z,100.00
2022-10-11T03:21:54.297Z,100.00
2022-10-11T03:25:04.041Z,100.00
2022-10-11T03:28:10.270Z,100.00
2022-10-11T03:31:16.101Z,100.00
2022-10-11T03:34:21.809Z,100.00
2022-10-11T03:37:27.990Z,100.00
2022-10-11T03:40:33.725Z,100.00
2022-10-11T03:43:39.168Z,100.00
2022-10-11T03:46:44.564Z,100.00
2022-10-11T03:49:49.958Z,100.00
2022-10-11T03:52:55.560Z,100.00
2022-10-11T03:56:05.892Z,100.00
2022-10-11T03:59:13.675Z,100.00
2022-10-11T04:02:19.586Z,100.00
2022-10-11T04:05:25.912Z,100.00
2022-10-11T04:08:31.391Z,100.00
2022-10-11T04:11:36.699Z,100.00
2022-10-11T04:14:41.854Z,100.00
2022-10-11T04:17:47.059Z,100.00
2022-10-11T04:20:52.491Z,100.00
2022-10-11T04:23:57.962Z,100.00
2022-10-11T04:27:03.386Z,100.00
2022-10-11T04:30:09.828Z,100.00
2022-10-11T04:33:15.091Z,100.00
2022-10-11T04:36:20.594Z,100.00
2022-10-11T04:39:26.183Z,100.00
2022-10-11T04:42:31.566Z,100.00
2022-10-11T04:45:37.186Z,100.00
2022-10-11T04:48:43.169Z,100.00
2022-10-11T04:51:48.967Z,100.00
2022-10-11T04:54:54.255Z,100.00
2022-10-11T04:57:59.829Z,100.00
2022-10-11T05:01:05.532Z,100.00
2022-10-11T05:04:10.989Z,100.00
2022-10-11T05:07:16.727Z,100.00
2022-10-11T05:10:21.684Z,100.00
2022-10-11T05:13:28.429Z,100.00
2022-10-11T05:16:33.898Z,100.00
2022-10-11T05:19:39.455Z,100.00
2022-10-11T05:22:45.046Z,100.00
2022-10-11T05:25:50.788Z,100.00
2022-10-11T05:28:56.241Z,100.00
2022-10-11T05:32:01.915Z,100.00
2022-10-11T05:35:08.044Z,100.00
2022-10-11T05:38:13.258Z,100.00
2022-10-11T05:41:18.846Z,100.00
2022-10-11T05:44:24.662Z,100.00
2022-10-11T05:47:30.549Z,100.00
2022-10-11T05:50:37.062Z,100.00
2022-10-11T05:53:42.540Z,100.00
2022-10-11T05:56:48.857Z,100.00
2022-10-11T05:59:54.562Z,100.00
2022-10-11T06:03:00.492Z,100.00
2022-10-11T06:06:06.156Z,100.00
2022-10-11T06:09:12.643Z,100.00
2022-10-11T06:12:19.051Z,100.00
2022-10-11T06:15:25.595Z,100.00
2022-10-11T06:18:32.050Z,100.00
2022-10-11T06:21:37.729Z,100.00
2022-10-11T06:24:43.496Z,100.00
2022-10-11T06:27:49.214Z,100.00
2022-10-11T06:30:56.233Z,100.00
2022-10-11T06:34:02.404Z,100.00
2022-10-11T06:37:08.124Z,100.00
2022-10-11T06:40:13.711Z,100.00
2022-10-11T06:43:19.608Z,100.00
2022-10-11T06:46:27.733Z,100.00
2022-10-11T06:49:33.558Z,100.00
2022-10-11T06:52:38.934Z,100.00
2022-10-11T06:55:44.566Z,100.00
2022-10-11T06:58:51.690Z,100.00
2022-10-11T07:01:57.400Z,100.00
2022-10-11T07:05:02.979Z,100.00
2022-10-11T07:08:08.439Z,100.00
2022-10-11T07:11:27.023Z,100.00
2022-10-11T07:14:32.485Z,100.00
2022-10-11T07:17:38.053Z,100.00
2022-10-11T07:20:43.646Z,100.00
2022-10-11T07:23:49.521Z,100.00
2022-10-11T07:26:55.469Z,100.00
2022-10-11T07:30:00.905Z,100.00
2022-10-11T07:33:07.015Z,100.00
2022-10-11T07:36:13.683Z,100.00
2022-10-11T07:39:19.532Z,100.00
2022-10-11T07:42:24.971Z,100.00
2022-10-11T07:45:30.665Z,100.00
2022-10-11T07:48:37.515Z,100.00
2022-10-11T07:51:43.968Z,100.00
2022-10-11T07:54:50.172Z,100.00
2022-10-11T07:57:56.561Z,100.00
2022-10-11T08:01:02.444Z,100.00
2022-10-11T08:04:08.228Z,100.00
2022-10-11T08:07:13.844Z,100.00
2022-10-11T08:10:19.412Z,100.00
2022-10-11T08:13:24.912Z,100.00
2022-10-11T08:16:30.564Z,100.00
2022-10-11T08:19:36.233Z,100.00
2022-10-11T08:22:42.252Z,100.00
2022-10-11T08:25:48.893Z,100.00
2022-10-11T08:28:54.771Z,100.00
2022-10-11T08:32:01.221Z,100.00
2022-10-11T08:35:07.502Z,100.00
2022-10-11T08:38:14.471Z,100.00
2022-10-11T08:41:35.441Z,100.00
2022-10-11T08:45:16.458Z,100.00
2022-10-11T08:48:15.607Z,100.00
2022-10-11T08:52:04.965Z,100.00
2022-10-11T08:55:22.072Z,100.00
2022-10-11T08:58:59.400Z,100.00
2022-10-11T09:02:55.595Z,100.00
2022-10-11T09:06:20.745Z,100.00
2022-10-11T09:09:56.538Z,100.00
2022-10-11T09:13:13.998Z,100.00
2022-10-11T09:16:35.980Z,100.00
2022-10-11T09:19:44.094Z,100.00
2022-10-11T09:23:08.102Z,100.00
2022-10-11T09:26:16.811Z,100.00
2022-10-11T09:29:40.837Z,100.00
2022-10-11T09:33:02.748Z,100.00
2022-10-11T09:36:32.028Z,100.00
2022-10-11T09:39:45.653Z,100.00
2022-10-11T09:42:51.506Z,100.00
2022-10-11T09:45:57.350Z,100.00
2022-10-11T09:49:12.697Z,99.51
2022-10-11T09:52:21.241Z,99.20
2022-10-11T09:55:30.907Z,97.19
2022-10-11T09:58:39.041Z,96.17
2022-10-11T10:01:45.047Z,95.16
2022-10-11T10:05:08.754Z,95.67
2022-10-11T10:08:24.977Z,95.19
2022-10-11T10:11:37.497Z,94.84
2022-10-11T10:14:42.966Z,95.24
2022-10-11T10:17:51.439Z,95.77
2022-10-11T10:21:02.369Z,95.75
2022-10-11T10:24:33.733Z,94.52
2022-10-11T10:27:39.353Z,94.32
2022-10-11T10:30:54.660Z,93.53
2022-10-11T10:34:01.961Z,93.50
2022-10-11T10:37:18.823Z,92.30
2022-10-11T10:40:50.843Z,90.24
2022-10-11T10:43:58.860Z,88.09
2022-10-11T10:47:07.247Z,89.37
2022-10-11T10:50:19.429Z,88.70
2022-10-11T10:53:37.710Z,89.62
2022-10-11T10:57:04.199Z,88.79
2022-10-11T11:00:17.661Z,88.79
2022-10-11T11:04:20.416Z,89.17
2022-10-11T11:07:39.378Z,88.09
2022-10-11T11:11:15.355Z,87.34
2022-10-11T11:14:59.059Z,87.05
2022-10-11T11:18:34.002Z,86.32
2022-10-11T11:21:44.558Z,86.48
2022-10-11T11:25:01.521Z,84.82
2022-10-11T11:28:32.705Z,84.39
2022-10-11T11:31:49.430Z,84.67
2022-10-11T11:35:08.451Z,84.61
2022-10-11T11:38:35.458Z,84.89
2022-10-11T11:41:48.306Z,82.36
2022-10-11T11:44:54.139Z,83.04
2022-10-11T11:48:24.968Z,82.94
2022-10-11T11:51:43.043Z,81.68
2022-10-11T11:54:53.703Z,82.75
2022-10-11T11:58:16.365Z,82.90
2022-10-11T12:01:43.003Z,82.43
2022-10-11T12:04:50.762Z,80.99
2022-10-11T12:08:01.448Z,79.75
2022-10-11T12:11:07.683Z,79.74
2022-10-11T12:14:31.535Z,80.16
2022-10-11T12:17:56.519Z,80.08
2022-10-11T12:21:17.844Z,81.95
2022-10-11T12:24:24.791Z,81.46
2022-10-11T12:27:43.806Z,79.42
2022-10-11T12:30:48.834Z,78.57
2022-10-11T12:34:18.392Z,78.26
2022-10-11T12:37:23.841Z,79.48
2022-10-11T12:40:42.312Z,80.02
2022-10-11T12:43:50.403Z,79.53
2022-10-11T12:46:55.868Z,78.50
2022-10-11T12:50:26.181Z,77.36
2022-10-11T12:54:24.979Z,76.44
2022-10-11T12:57:31.892Z,77.21
2022-10-11T13:00:40.367Z,74.85
2022-10-11T13:03:49.583Z,76.76
2022-10-11T13:07:03.193Z,78.28
2022-10-11T13:10:16.539Z,76.20
2022-10-11T13:13:41.870Z,75.38
2022-10-11T13:17:05.709Z,76.74
2022-10-11T13:20:20.472Z,76.44
2022-10-11T13:23:36.092Z,75.17
2022-10-11T13:26:43.711Z,74.47
2022-10-11T13:29:51.797Z,74.84
2022-10-11T13:32:59.133Z,74.82
2022-10-11T13:36:08.949Z,77.34
2022-10-11T13:39:34.886Z,75.67
2022-10-11T13:42:40.847Z,76.19
2022-10-11T13:45:46.397Z,75.96
2022-10-11T13:49:03.534Z,73.76
2022-10-11T13:52:17.888Z,75.15
2022-10-11T13:55:51.587Z,74.81
2022-10-11T13:58:57.322Z,74.09
2022-10-11T14:02:04.921Z,73.13
2022-10-11T14:05:32.881Z,74.80
2022-10-11T14:08:44.225Z,73.41
2022-10-11T14:11:49.968Z,74.64
2022-10-11T14:14:55.945Z,72.92
2022-10-11T14:18:23.276Z,72.59
2022-10-11T14:21:46.087Z,73.20
2022-10-11T14:24:51.698Z,74.33
2022-10-11T14:27:57.683Z,75.07
2022-10-11T14:31:02.905Z,75.14
2022-10-11T14:34:16.198Z,74.30
2022-10-11T14:37:21.937Z,74.09
2022-10-11T14:40:30.359Z,73.94
2022-10-11T14:43:35.607Z,72.91
2022-10-11T14:46:41.506Z,72.94
2022-10-11T14:49:46.931Z,72.65
2022-10-11T14:52:51.908Z,73.26
2022-10-11T14:55:57.187Z,72.85
2022-10-11T14:59:02.370Z,73.16
2022-10-11T15:02:12.068Z,73.26
2022-10-11T15:05:17.544Z,73.03
2022-10-11T15:08:22.747Z,73.04
2022-10-11T15:11:28.180Z,72.60
2022-10-11T15:14:33.349Z,72.11
2022-10-11T15:17:38.575Z,71.64
2022-10-11T15:20:46.658Z,71.80
2022-10-11T15:23:53.908Z,71.02
2022-10-11T15:26:59.209Z,71.16
2022-10-11T15:30:13.981Z,70.72
2022-10-11T15:33:19.129Z,71.81
2022-10-11T15:36:24.340Z,73.12
2022-10-11T15:39:34.401Z,72.77
2022-10-11T15:42:39.848Z,74.36
2022-10-11T15:45:45.159Z,75.13
2022-10-11T15:48:52.849Z,73.36
2022-10-11T15:51:58.144Z,73.77
2022-10-11T15:55:03.852Z,74.12
2022-10-11T15:58:19.683Z,75.42
2022-10-11T16:01:25.787Z,75.11
2022-10-11T16:04:30.994Z,75.99
2022-10-11T16:07:36.214Z,77.43
2022-10-11T16:10:42.034Z,78.04
2022-10-11T16:13:49.372Z,79.05
2022-10-11T16:16:54.929Z,79.16
2022-10-11T16:20:00.805Z,79.44
2022-10-11T16:23:07.191Z,80.27
2022-10-11T16:26:16.828Z,80.85
2022-10-11T16:29:22.324Z,81.47
2022-10-11T16:32:28.977Z,81.70
2022-10-11T16:35:34.494Z,82.78
2022-10-11T16:38:39.922Z,83.21
2022-10-11T16:41:46.552Z,84.50
2022-10-11T16:44:52.754Z,84.73
2022-10-11T16:47:58.856Z,85.24
2022-10-11T16:51:08.552Z,86.39
2022-10-11T16:54:16.592Z,87.36
2022-10-11T16:57:24.872Z,87.13
2022-10-11T17:00:30.080Z,87.36
2022-10-11T17:03:35.361Z,88.07
2022-10-11T17:06:41.526Z,89.36
2022-10-11T17:09:48.779Z,89.81
2022-10-11T17:12:55.440Z,91.12
2022-10-11T17:16:00.893Z,91.13
2022-10-11T17:19:13.423Z,92.44
2022-10-11T17:22:20.034Z,92.89
2022-10-11T17:25:25.721Z,93.31
2022-10-11T17:28:35.915Z,94.54
2022-10-11T17:31:48.117Z,94.88
2022-10-11T17:34:54.351Z,95.15
2022-10-11T17:38:05.722Z,95.14
2022-10-11T17:41:11.795Z,96.06
2022-10-11T17:44:18.692Z,97.21
2022-10-11T17:47:24.240Z,97.03
2022-10-11T17:50:29.876Z,97.58
2022-10-11T17:53:35.757Z,97.99
2022-10-11T17:56:42.252Z,99.17
2022-10-11T17:59:47.609Z,100.00
2022-10-11T18:02:53.529Z,99.57
2022-10-11T18:06:07.397Z,100.00
2022-10-11T18:09:14.712Z,100.00
2022-10-11T18:12:20.264Z,100.00
2022-10-11T18:15:26.160Z,99.64
2022-10-11T18:18:31.602Z,100.00
2022-10-11T18:21:38.222Z,99.90
2022-10-11T18:24:43.512Z,100.00
2022-10-11T18:27:50.816Z,100.00
2022-10-11T18:30:57.768Z,100.00
2022-10-11T18:34:05.446Z,100.00
2022-10-11T18:37:11.081Z,100.00
2022-10-11T18:40:17.199Z,100.00
2022-10-11T18:43:22.931Z,99.06
2022-10-11T18:46:29.436Z,98.72
2022-10-11T18:49:35.101Z,99.29
2022-10-11T18:52:44.457Z,99.77
2022-10-11T18:55:51.064Z,100.00
2022-10-11T18:58:58.070Z,100.00
2022-10-11T19:02:05.102Z,100.00
2022-10-11T19:05:10.783Z,100.00
2022-10-11T19:08:16.456Z,100.00
2022-10-11T19:11:25.505Z,100.00
2022-10-11T19:14:33.037Z,100.00
2022-10-11T19:17:39.224Z,100.00
2022-10-11T19:20:44.719Z,100.00
2022-10-11T19:23:50.720Z,100.00
2022-10-11T19:27:01.377Z,100.00
2022-10-11T19:30:09.062Z,100.00
2022-10-11T19:33:14.538Z,100.00
2022-10-11T19:36:20.420Z,100.00
2022-10-11T19:39:26.075Z,100.00
2022-10-11T19:42:31.889Z,100.00
2022-10-11T19:45:37.783Z,100.00
2022-10-11T19:48:46.607Z,100.00
2022-10-11T19:51:53.061Z,100.00
2022-10-11T19:54:58.525Z,100.00
2022-10-11T19:58:08.201Z,100.00
2022-10-11T20:01:19.290Z,100.00
2022-10-11T20:04:50.999Z,100.00
2022-10-11T20:07:51.684Z,100.00
2022-10-11T20:11:02.043Z,100.00
2022-10-11T20:14:07.687Z,100.00
2022-10-11T20:17:13.395Z,100.00
2022-10-11T20:20:19.534Z,100.00
2022-10-11T20:23:27.774Z,100.00
2022-10-11T20:26:34.647Z,99.61
2022-10-11T20:29:40.324Z,99.98
2022-10-11T20:32:45.780Z,99.15
2022-10-11T20:36:02.731Z,98.83
2022-10-11T20:39:08.182Z,99.33
2022-10-11T20:42:13.880Z,98.80
2022-10-11T20:45:19.346Z,99.55
2022-10-11T20:48:24.965Z,99.35
2022-10-11T20:51:32.647Z,99.55
2022-10-11T20:54:41.020Z,99.29
2022-10-11T20:57:46.420Z,99.25
2022-10-11T21:00:51.889Z,100.00
2022-10-11T21:03:59.247Z,98.55
2022-10-11T21:07:04.373Z,98.78
2022-10-11T21:10:09.963Z,98.99
2022-10-11T21:13:15.373Z,99.66
2022-10-11T21:16:20.765Z,99.89
2022-10-11T21:19:26.358Z,100.00
2022-10-11T21:22:32.794Z,100.00
2022-10-11T21:25:39.857Z,100.00
2022-10-11T21:28:46.969Z,100.00
2022-10-11T21:31:53.000Z,100.00
2022-10-11T21:34:58.521Z,100.00
2022-10-11T21:38:03.933Z,100.00
2022-10-11T21:41:13.003Z,100.00
2022-10-11T21:44:18.760Z,100.00
2022-10-11T21:47:24.151Z,100.00
2022-10-11T21:50:29.665Z,100.00
2022-10-11T21:53:35.046Z,100.00
2022-10-11T21:56:40.917Z,100.00
2022-10-11T21:59:46.239Z,100.00
2022-10-11T22:02:54.729Z,100.00
2022-10-11T22:06:03.644Z,100.00
2022-10-11T22:09:09.717Z,100.00
2022-10-11T22:12:14.949Z,100.00
2022-10-11T22:15:20.209Z,100.00
2022-10-11T22:18:25.732Z,100.00
2022-10-11T22:21:31.284Z,100.00
2022-10-11T22:24:36.919Z,100.00
2022-10-11T22:27:42.490Z,100.00
2022-10-11T22:30:48.786Z,100.00
2022-10-11T22:33:56.026Z,100.00
2022-10-11T22:37:01.473Z,100.00
2022-10-11T22:40:07.585Z,100.00
2022-10-11T22:43:13.576Z,100.00
2022-10-11T22:46:18.795Z,100.00
2022-10-11T22:49:24.479Z,100.00
2022-10-11T22:52:30.195Z,100.00
2022-10-11T22:55:35.947Z,100.00
2022-10-11T22:58:44.287Z,100.00
2022-10-11T23:01:49.431Z,100.00
2022-10-11T23:04:54.996Z,100.00
2022-10-11T23:08:00.413Z,100.00
2022-10-11T23:11:07.830Z,100.00
2022-10-11T23:14:13.158Z,100.00
2022-10-11T23:17:19.220Z,100.00
2022-10-11T23:20:24.718Z,100.00
2022-10-11T23:23:30.394Z,100.00
2022-10-11T23:26:35.801Z,100.00
2022-10-11T23:29:41.488Z,100.00
2022-10-11T23:32:47.078Z,100.00
2022-10-11T23:35:52.711Z,100.00
2022-10-11T23:38:59.546Z,100.00
2022-10-11T23:42:04.821Z,100.00
2022-10-11T23:45:10.847Z,100.00
2022-10-11T23:48:16.343Z,100.00
2022-10-11T23:51:21.778Z,100.00
2022-10-11T23:54:27.292Z,100.00
2022-10-11T23:57:32.768Z,100.00
